Terminal Aerodrome Forecast
Issued by NWS

Home | Current Version | Previous Version | Text Only | Print | Product List | Glossary On
Versions: 1 2 3 4 5 6 7 8 9 10 11 12 13 14
605
FTUS46 KLOX 232333
TAFWJF
TAF
KWJF 232333Z 2400/2424 24018G28KT P6SM SKC
     FM240400 24012KT P6SM SKC
     FM241200 VRB05KT P6SM SKC
     FM241800 23007KT P6SM SKC
     FM242100 23015KT P6SM SKC=

USA.gov is the U.S. government's official web portal to all federal, state and local government web resources and services.